createdAt,value
2023-04-09T00:01:40.321Z,99.54
2023-04-09T00:04:06.778Z,99.90
2023-04-09T00:06:33.206Z,99.42
2023-04-09T00:08:59.675Z,99.50
2023-04-09T00:11:26.112Z,99.90
2023-04-09T00:13:52.579Z,100.00
2023-04-09T00:16:19.241Z,100.00
2023-04-09T00:18:45.737Z,100.00
2023-04-09T00:21:12.603Z,100.00
2023-04-09T00:23:39.109Z,100.00
2023-04-09T00:26:05.511Z,100.00
2023-04-09T00:28:32.789Z,100.00
2023-04-09T00:30:59.221Z,99.95
2023-04-09T00:33:25.810Z,99.92
2023-04-09T00:35:52.371Z,99.96
2023-04-09T00:38:19.216Z,100.00
2023-04-09T00:40:49.639Z,100.00
2023-04-09T00:43:16.722Z,100.00
2023-04-09T00:45:44.045Z,100.00
2023-04-09T00:48:12.016Z,100.00
2023-04-09T00:50:38.526Z,100.00
2023-04-09T00:53:05.946Z,100.00
2023-04-09T00:55:32.950Z,100.00
2023-04-09T00:57:59.501Z,100.00
2023-04-09T01:00:27.587Z,100.00
2023-04-09T01:02:57.722Z,100.00
2023-04-09T01:05:31.585Z,100.00
2023-04-09T01:08:08.427Z,100.00
2023-04-09T01:10:43.116Z,100.00
2023-04-09T01:13:22.109Z,100.00
2023-04-09T01:15:53.901Z,100.00
2023-04-09T01:18:31.124Z,100.00
2023-04-09T01:21:09.580Z,100.00
2023-04-09T01:24:02.572Z,100.00
2023-04-09T01:27:03.931Z,100.00
2023-04-09T01:29:46.580Z,100.00
2023-04-09T01:32:16.746Z,100.00
2023-04-09T01:34:46.409Z,100.00
2023-04-09T01:37:15.730Z,100.00
2023-04-09T01:39:42.890Z,100.00
2023-04-09T01:42:13.125Z,100.00
2023-04-09T01:44:42.144Z,100.00
2023-04-09T01:47:09.167Z,100.00
2023-04-09T01:49:36.173Z,100.00
2023-04-09T01:52:03.181Z,100.00
2023-04-09T01:54:29.970Z,100.00
2023-04-09T01:56:58.151Z,100.00
2023-04-09T01:59:25.213Z,100.00
2023-04-09T02:02:01.279Z,100.00
2023-04-09T02:04:35.815Z,100.00
2023-04-09T02:07:07.924Z,100.00
2023-04-09T02:09:38.553Z,100.00
2023-04-09T02:12:10.636Z,100.00
2023-04-09T02:15:03.003Z,100.00
2023-04-09T02:17:30.023Z,100.00
2023-04-09T02:19:57.191Z,100.00
2023-04-09T02:22:23.641Z,100.00
2023-04-09T02:24:50.049Z,100.00
2023-04-09T02:27:17.048Z,100.00
2023-04-09T02:29:44.127Z,100.00
2023-04-09T02:32:13.326Z,100.00
2023-04-09T02:34:39.687Z,100.00
2023-04-09T02:37:06.083Z,100.00
2023-04-09T02:39:32.868Z,100.00
2023-04-09T02:41:59.290Z,100.00
2023-04-09T02:44:26.864Z,100.00
2023-04-09T02:46:53.724Z,100.00
2023-04-09T02:49:20.201Z,100.00
2023-04-09T02:51:47.036Z,100.00
2023-04-09T02:54:14.052Z,100.00
2023-04-09T02:56:40.479Z,100.00
2023-04-09T02:59:07.059Z,100.00
2023-04-09T03:01:34.136Z,100.00
2023-04-09T03:04:01.757Z,100.00
2023-04-09T03:06:28.537Z,100.00
2023-04-09T03:08:55.020Z,100.00
2023-04-09T03:11:21.488Z,100.00
2023-04-09T03:13:48.072Z,100.00
2023-04-09T03:16:15.081Z,100.00
2023-04-09T03:18:42.156Z,100.00
2023-04-09T03:21:09.239Z,100.00
2023-04-09T03:23:43.769Z,100.00
2023-04-09T03:26:10.576Z,100.00
2023-04-09T03:28:45.975Z,100.00
2023-04-09T03:31:14.305Z,100.00
2023-04-09T03:33:43.309Z,100.00
2023-04-09T03:36:10.690Z,100.00
2023-04-09T03:39:00.279Z,100.00
2023-04-09T03:41:32.711Z,100.00
2023-04-09T03:44:03.155Z,100.00
2023-04-09T03:46:36.249Z,100.00
2023-04-09T03:49:03.870Z,100.00
2023-04-09T03:51:38.638Z,100.00
2023-04-09T03:54:05.158Z,100.00
2023-04-09T03:56:32.891Z,100.00
2023-04-09T03:59:00.108Z,100.00
2023-04-09T04:01:35.423Z,100.00
2023-04-09T04:04:02.341Z,100.00
2023-04-09T04:06:35.600Z,100.00
2023-04-09T04:09:12.235Z,100.00
2023-04-09T04:11:44.141Z,100.00
2023-04-09T04:14:11.076Z,100.00
2023-04-09T04:16:43.696Z,100.00
2023-04-09T04:19:13.278Z,100.00
2023-04-09T04:21:45.314Z,100.00
2023-04-09T04:24:12.041Z,100.00
2023-04-09T04:26:40.165Z,100.00
2023-04-09T04:29:07.541Z,100.00
2023-04-09T04:31:55.627Z,100.00
2023-04-09T04:34:24.983Z,100.00
2023-04-09T04:37:00.151Z,100.00
2023-04-09T04:39:31.692Z,100.00
2023-04-09T04:42:06.023Z,100.00
2023-04-09T04:44:32.924Z,100.00
2023-04-09T04:47:09.505Z,100.00
2023-04-09T04:49:36.094Z,100.00
2023-04-09T04:52:05.575Z,100.00
2023-04-09T04:54:33.932Z,100.00
2023-04-09T04:57:01.140Z,100.00
2023-04-09T04:59:40.615Z,100.00
2023-04-09T05:02:09.658Z,100.00
2023-04-09T05:04:46.777Z,100.00
2023-04-09T05:07:16.845Z,100.00
2023-04-09T05:09:49.890Z,100.00
2023-04-09T05:12:17.879Z,100.00
2023-04-09T05:14:48.569Z,100.00
2023-04-09T05:17:15.895Z,100.00
2023-04-09T05:19:45.135Z,100.00
2023-04-09T05:22:13.614Z,100.00
2023-04-09T05:24:40.030Z,100.00
2023-04-09T05:27:06.530Z,100.00
2023-04-09T05:29:32.980Z,100.00
2023-04-09T05:32:00.649Z,100.00
2023-04-09T05:34:31.838Z,100.00
2023-04-09T05:36:59.160Z,100.00
2023-04-09T05:39:26.090Z,100.00
2023-04-09T05:41:53.041Z,100.00
2023-04-09T05:44:31.708Z,100.00
2023-04-09T05:47:08.906Z,100.00
2023-04-09T05:49:41.793Z,100.00
2023-04-09T05:52:12.615Z,100.00
2023-04-09T05:54:41.020Z,100.00
2023-04-09T05:57:09.250Z,100.00
2023-04-09T05:59:38.380Z,100.00
2023-04-09T06:02:05.071Z,100.00
2023-04-09T06:04:32.968Z,100.00
2023-04-09T06:07:00.430Z,100.00
2023-04-09T06:09:27.875Z,100.00
2023-04-09T06:11:54.310Z,100.00
2023-04-09T06:14:21.003Z,100.00
2023-04-09T06:16:47.402Z,100.00
2023-04-09T06:19:16.219Z,100.00
2023-04-09T06:21:43.325Z,100.00
2023-04-09T06:24:09.726Z,100.00
2023-04-09T06:26:36.511Z,100.00
2023-04-09T06:29:03.293Z,100.00
2023-04-09T06:31:29.949Z,100.00
2023-04-09T06:33:56.767Z,100.00
2023-04-09T06:36:23.268Z,100.00
2023-04-09T06:38:49.670Z,100.00
2023-04-09T06:41:16.196Z,100.00
2023-04-09T06:43:43.221Z,100.00
2023-04-09T06:46:09.695Z,100.00
2023-04-09T06:48:36.417Z,100.00
2023-04-09T06:51:02.927Z,100.00
2023-04-09T06:53:30.164Z,100.00
2023-04-09T06:55:57.282Z,100.00
2023-04-09T06:58:23.770Z,100.00
2023-04-09T07:00:50.254Z,100.00
2023-04-09T07:03:17.108Z,100.00
2023-04-09T07:05:44.269Z,100.00
2023-04-09T07:08:11.901Z,100.00
2023-04-09T07:10:38.663Z,100.00
2023-04-09T07:13:05.321Z,100.00
2023-04-09T07:15:31.944Z,100.00
2023-04-09T07:17:58.351Z,100.00
2023-04-09T07:20:24.793Z,100.00
2023-04-09T07:22:51.262Z,100.00
2023-04-09T07:25:17.751Z,100.00
2023-04-09T07:27:44.482Z,100.00
2023-04-09T07:30:11.167Z,100.00
2023-04-09T07:32:38.084Z,100.00
2023-04-09T07:35:07.873Z,100.00
2023-04-09T07:37:34.269Z,100.00
2023-04-09T07:40:01.590Z,100.00
2023-04-09T07:42:28.257Z,100.00
2023-04-09T07:44:55.065Z,100.00
2023-04-09T07:47:21.650Z,100.00
2023-04-09T07:49:48.161Z,100.00
2023-04-09T07:52:15.454Z,100.00
2023-04-09T07:54:42.250Z,100.00
2023-04-09T07:57:08.660Z,100.00
2023-04-09T07:59:36.227Z,100.00
2023-04-09T08:02:03.763Z,100.00
2023-04-09T08:04:31.976Z,100.00
2023-04-09T08:06:58.443Z,100.00
2023-04-09T08:09:24.872Z,99.49
2023-04-09T08:11:51.409Z,98.41
2023-04-09T08:14:18.565Z,97.45
2023-04-09T08:17:10.178Z,95.83
2023-04-09T08:19:36.668Z,96.61
2023-04-09T08:22:03.143Z,97.22
2023-04-09T08:24:30.112Z,96.85
2023-04-09T08:26:57.622Z,96.44
2023-04-09T08:29:24.059Z,96.24
2023-04-09T08:31:50.588Z,95.32
2023-04-09T08:34:20.930Z,94.51
2023-04-09T08:36:50.644Z,94.40
2023-04-09T08:39:20.665Z,94.58
2023-04-09T08:41:48.314Z,94.60
2023-04-09T08:44:15.482Z,93.07
2023-04-09T08:46:43.579Z,93.59
2023-04-09T08:49:10.956Z,94.55
2023-04-09T08:51:37.526Z,94.15
2023-04-09T08:54:27.216Z,93.92
2023-04-09T08:56:50.985Z,92.35
2023-04-09T08:59:18.764Z,92.71
2023-04-09T09:01:47.884Z,92.71
2023-04-09T09:04:14.747Z,92.61
2023-04-09T09:06:42.404Z,91.45
2023-04-09T09:09:14.764Z,91.35
2023-04-09T09:11:43.909Z,91.08
2023-04-09T09:14:14.711Z,89.93
2023-04-09T09:16:43.894Z,89.73
2023-04-09T09:19:30.987Z,89.27
2023-04-09T09:21:58.002Z,89.06
2023-04-09T09:24:24.508Z,88.85
2023-04-09T09:26:52.431Z,87.97
2023-04-09T09:29:20.033Z,87.87
2023-04-09T09:31:51.739Z,86.78
2023-04-09T09:34:22.362Z,86.21
2023-04-09T09:36:49.039Z,86.11
2023-04-09T09:39:17.406Z,86.20
2023-04-09T09:42:06.509Z,86.64
2023-04-09T09:44:33.615Z,85.29
2023-04-09T09:47:03.443Z,85.45
2023-04-09T09:49:29.929Z,85.05
2023-04-09T09:51:59.425Z,84.95
2023-04-09T09:54:28.149Z,83.42
2023-04-09T09:57:02.011Z,82.88
2023-04-09T09:59:34.291Z,83.30
2023-04-09T10:02:05.879Z,83.64
2023-04-09T10:04:37.893Z,83.01
2023-04-09T10:07:05.841Z,82.71
2023-04-09T10:09:37.633Z,82.00
2023-04-09T10:12:07.144Z,80.90
2023-04-09T10:14:37.263Z,81.12
2023-04-09T10:17:04.835Z,81.11
2023-04-09T10:19:35.665Z,78.87
2023-04-09T10:22:11.501Z,79.16
2023-04-09T10:24:42.515Z,78.68
2023-04-09T10:27:12.117Z,78.59
2023-04-09T10:29:47.922Z,76.99
2023-04-09T10:32:26.565Z,77.71
2023-04-09T10:34:57.151Z,76.64
2023-04-09T10:37:25.355Z,75.87
2023-04-09T10:39:52.732Z,75.67
2023-04-09T10:42:49.051Z,76.23
2023-04-09T10:45:16.792Z,74.06
2023-04-09T10:47:44.642Z,72.08
2023-04-09T10:50:24.414Z,72.89
2023-04-09T10:53:00.118Z,72.37
2023-04-09T10:55:40.962Z,71.86
2023-04-09T10:58:12.357Z,73.55
2023-04-09T11:00:45.076Z,72.03
2023-04-09T11:03:30.485Z,71.67
2023-04-09T11:06:09.328Z,71.29
2023-04-09T11:08:37.932Z,69.78
2023-04-09T11:11:04.508Z,70.86
2023-04-09T11:13:32.059Z,69.54
2023-04-09T11:16:00.521Z,68.50
2023-04-09T11:18:29.853Z,68.18
2023-04-09T11:20:58.429Z,67.14
2023-04-09T11:23:25.283Z,66.73
2023-04-09T11:25:53.066Z,66.39
2023-04-09T11:28:20.637Z,67.23
2023-04-09T11:30:47.610Z,65.77
2023-04-09T11:33:15.625Z,66.57
2023-04-09T11:35:43.893Z,66.71
2023-04-09T11:38:11.600Z,65.64
2023-04-09T11:40:48.284Z,65.02
2023-04-09T11:43:16.536Z,64.86
2023-04-09T11:45:44.786Z,65.23
2023-04-09T11:48:13.632Z,64.68
2023-04-09T11:50:40.608Z,64.32
2023-04-09T11:53:20.612Z,63.95
2023-04-09T11:55:50.279Z,61.62
2023-04-09T11:58:17.427Z,60.64
2023-04-09T12:00:44.195Z,62.20
2023-04-09T12:03:11.742Z,62.58
2023-04-09T12:05:41.060Z,62.97
2023-04-09T12:08:09.269Z,61.62
2023-04-09T12:10:37.470Z,63.19
2023-04-09T12:13:05.949Z,63.31
2023-04-09T12:15:41.848Z,63.93
2023-04-09T12:18:10.749Z,64.49
2023-04-09T12:20:42.605Z,63.22
2023-04-09T12:23:11.034Z,63.17
2023-04-09T12:25:39.023Z,64.24
2023-04-09T12:28:07.366Z,65.55
2023-04-09T12:30:35.226Z,65.47
2023-04-09T12:33:03.367Z,67.02
2023-04-09T12:35:30.423Z,66.50
2023-04-09T12:37:59.110Z,66.83
2023-04-09T12:40:25.580Z,66.03
2023-04-09T12:42:52.076Z,64.31
2023-04-09T12:45:20.086Z,64.64
2023-04-09T12:47:46.710Z,64.69
2023-04-09T12:50:16.099Z,64.47
2023-04-09T12:52:44.875Z,65.25
2023-04-09T12:55:12.875Z,65.12
2023-04-09T12:57:41.539Z,64.73
2023-04-09T13:00:08.917Z,63.73
2023-04-09T13:02:35.753Z,62.90
2023-04-09T13:05:03.081Z,63.43
2023-04-09T13:07:37.040Z,63.21
2023-04-09T13:10:03.731Z,61.46
2023-04-09T13:12:32.331Z,60.64
2023-04-09T13:14:59.206Z,60.64
2023-04-09T13:17:25.936Z,59.53
2023-04-09T13:19:52.705Z,59.17
2023-04-09T13:22:19.295Z,58.56
2023-04-09T13:24:46.182Z,59.38
2023-04-09T13:27:12.859Z,59.74
2023-04-09T13:29:39.256Z,60.04
2023-04-09T13:32:07.442Z,57.80
2023-04-09T13:34:35.314Z,55.86
2023-04-09T13:37:04.968Z,53.86
2023-04-09T13:39:32.094Z,53.74
2023-04-09T13:41:59.028Z,53.78
2023-04-09T13:44:25.506Z,53.27
2023-04-09T13:46:52.345Z,52.93
2023-04-09T13:49:19.020Z,52.03
2023-04-09T13:51:46.554Z,53.17
2023-04-09T13:54:14.061Z,53.86
2023-04-09T13:56:40.549Z,54.31
2023-04-09T13:59:07.288Z,54.13
2023-04-09T14:01:34.689Z,53.68
2023-04-09T14:04:01.458Z,54.26
2023-04-09T14:06:28.012Z,53.98
2023-04-09T14:08:54.627Z,54.59
2023-04-09T14:11:21.326Z,54.16
2023-04-09T14:13:48.296Z,54.29
2023-04-09T14:16:15.070Z,55.17
2023-04-09T14:18:41.617Z,55.53
2023-04-09T14:21:09.979Z,55.70
2023-04-09T14:23:37.154Z,55.96
2023-04-09T14:26:04.335Z,56.82
2023-04-09T14:28:32.115Z,56.00
2023-04-09T14:30:59.393Z,56.57
2023-04-09T14:33:26.645Z,56.77
2023-04-09T14:35:53.074Z,56.13
2023-04-09T14:38:19.980Z,55.71
2023-04-09T14:41:11.356Z,56.83
2023-04-09T14:43:37.823Z,56.13
2023-04-09T14:46:06.274Z,56.36
2023-04-09T14:48:33.359Z,55.64
2023-04-09T14:50:59.745Z,55.22
2023-04-09T14:53:26.175Z,56.34
2023-04-09T14:55:52.581Z,55.94
2023-04-09T14:58:19.242Z,55.41
2023-04-09T15:00:45.946Z,55.21
2023-04-09T15:03:13.181Z,55.63
2023-04-09T15:05:40.101Z,55.62
2023-04-09T15:08:06.579Z,56.77
2023-04-09T15:10:33.354Z,57.01
2023-04-09T15:12:59.755Z,56.69
2023-04-09T15:15:26.758Z,56.69
2023-04-09T15:17:53.225Z,56.53
2023-04-09T15:20:20.155Z,56.34
2023-04-09T15:22:46.640Z,56.79
2023-04-09T15:25:17.611Z,56.67
2023-04-09T15:27:44.925Z,56.22
2023-04-09T15:30:11.436Z,56.36
2023-04-09T15:32:37.832Z,56.03
2023-04-09T15:35:04.593Z,55.62
2023-04-09T15:37:31.973Z,55.58
2023-04-09T15:39:58.470Z,55.63
2023-04-09T15:42:25.691Z,55.38
2023-04-09T15:44:52.360Z,55.58
2023-04-09T15:47:19.179Z,55.95
2023-04-09T15:49:46.266Z,55.70
2023-04-09T15:52:14.091Z,55.56
2023-04-09T15:54:40.586Z,55.96
2023-04-09T15:57:06.971Z,55.35
2023-04-09T15:59:33.434Z,55.39
2023-04-09T16:02:00.053Z,54.82
2023-04-09T16:04:27.405Z,54.64
2023-04-09T16:06:55.347Z,53.99
2023-04-09T16:09:22.343Z,53.61
2023-04-09T16:11:48.870Z,53.42
2023-04-09T16:14:15.782Z,52.88
2023-04-09T16:16:46.943Z,53.31
2023-04-09T16:19:14.070Z,53.87
2023-04-09T16:21:43.913Z,53.26
2023-04-09T16:24:12.943Z,53.93
2023-04-09T16:26:44.228Z,54.24
2023-04-09T16:29:11.041Z,54.86
2023-04-09T16:31:42.183Z,54.68
2023-04-09T16:34:09.318Z,54.31
2023-04-09T16:36:37.018Z,54.56
2023-04-09T16:39:04.712Z,55.52
2023-04-09T16:41:33.566Z,55.56
2023-04-09T16:44:01.617Z,55.65
2023-04-09T16:46:28.161Z,55.84
2023-04-09T16:48:54.757Z,55.12
2023-04-09T16:51:21.326Z,55.49
2023-04-09T16:53:47.883Z,55.38
2023-04-09T16:56:15.035Z,55.70
2023-04-09T16:58:41.528Z,55.79
2023-04-09T17:01:07.938Z,55.52
2023-04-09T17:03:38.098Z,55.48
2023-04-09T17:06:04.944Z,55.25
2023-04-09T17:08:35.667Z,55.36
2023-04-09T17:11:02.554Z,55.80
2023-04-09T17:13:31.594Z,55.39
2023-04-09T17:15:58.313Z,55.04
2023-04-09T17:18:24.846Z,55.37
2023-04-09T17:20:51.945Z,55.07
2023-04-09T17:23:22.866Z,55.27
2023-04-09T17:25:49.339Z,55.60
2023-04-09T17:28:18.705Z,55.64
2023-04-09T17:30:47.235Z,55.27
2023-04-09T17:33:13.930Z,54.76
2023-04-09T17:35:41.946Z,55.02
2023-04-09T17:38:08.377Z,55.58
2023-04-09T17:40:34.821Z,56.63
2023-04-09T17:43:02.429Z,56.86
2023-04-09T17:45:28.922Z,57.08
2023-04-09T17:47:55.500Z,57.18
2023-04-09T17:50:21.981Z,57.70
2023-04-09T17:52:48.506Z,57.64
2023-04-09T17:55:15.323Z,58.27
2023-04-09T17:57:43.091Z,58.49
2023-04-09T18:00:11.014Z,58.81
2023-04-09T18:02:46.090Z,59.00
2023-04-09T18:05:13.004Z,59.16
2023-04-09T18:07:40.051Z,59.61
2023-04-09T18:10:06.793Z,60.04
2023-04-09T18:12:33.299Z,59.84
2023-04-09T18:14:59.690Z,60.60
2023-04-09T18:17:27.623Z,60.62
2023-04-09T18:19:55.029Z,61.05
2023-04-09T18:22:21.757Z,61.30
2023-04-09T18:24:48.360Z,61.78
2023-04-09T18:27:16.316Z,62.21
2023-04-09T18:29:50.287Z,62.53
2023-04-09T18:32:19.586Z,63.26
2023-04-09T18:34:47.842Z,63.24
2023-04-09T18:37:15.175Z,63.56
2023-04-09T18:39:41.647Z,63.38
2023-04-09T18:42:08.116Z,63.69
2023-04-09T18:44:36.283Z,63.75
2023-04-09T18:47:05.375Z,64.20
2023-04-09T18:49:38.101Z,64.19
2023-04-09T18:52:09.064Z,64.72
2023-04-09T18:54:37.019Z,64.37
2023-04-09T18:57:06.798Z,65.01
2023-04-09T18:59:34.787Z,65.04
2023-04-09T19:02:04.769Z,65.38
2023-04-09T19:04:36.749Z,65.81
2023-04-09T19:07:03.664Z,65.94
2023-04-09T19:09:31.466Z,66.18
2023-04-09T19:11:58.753Z,66.70
2023-04-09T19:14:26.450Z,66.52
2023-04-09T19:16:53.193Z,66.68
2023-04-09T19:19:19.702Z,67.07
2023-04-09T19:21:46.803Z,67.35
2023-04-09T19:24:13.743Z,67.82
2023-04-09T19:26:40.346Z,68.15
2023-04-09T19:29:07.114Z,68.32
2023-04-09T19:31:36.923Z,68.52
2023-04-09T19:34:05.913Z,68.69
2023-04-09T19:36:34.443Z,69.27
2023-04-09T19:39:01.085Z,69.83
2023-04-09T19:41:27.954Z,69.81
2023-04-09T19:43:54.677Z,70.10
2023-04-09T19:46:21.086Z,71.37
2023-04-09T19:48:48.103Z,71.44
2023-04-09T19:51:21.983Z,72.48
2023-04-09T19:53:49.421Z,73.39
2023-04-09T19:56:16.305Z,73.63
2023-04-09T19:58:44.344Z,73.89
2023-04-09T20:01:11.251Z,74.33
2023-04-09T20:03:39.239Z,74.49
2023-04-09T20:06:10.112Z,74.48
2023-04-09T20:08:37.732Z,74.42
2023-04-09T20:11:04.469Z,75.44
2023-04-09T20:13:32.027Z,75.41
2023-04-09T20:15:58.658Z,75.72
2023-04-09T20:18:25.504Z,75.79
2023-04-09T20:20:52.038Z,76.03
2023-04-09T20:23:18.464Z,76.27
2023-04-09T20:25:45.492Z,76.49
2023-04-09T20:28:12.056Z,76.73
2023-04-09T20:30:38.497Z,76.44
2023-04-09T20:33:05.007Z,76.52
2023-04-09T20:35:35.380Z,76.97
2023-04-09T20:38:03.126Z,77.13
2023-04-09T20:40:31.108Z,77.47
2023-04-09T20:42:57.513Z,77.63
2023-04-09T20:45:23.916Z,77.97
2023-04-09T20:47:50.940Z,77.65
2023-04-09T20:50:19.441Z,77.61
2023-04-09T20:52:45.873Z,77.94
2023-04-09T20:55:12.311Z,78.41
2023-04-09T20:57:39.042Z,78.87
2023-04-09T21:00:06.166Z,78.70
2023-04-09T21:02:33.193Z,78.86
2023-04-09T21:05:05.479Z,79.40
2023-04-09T21:07:41.713Z,79.41
2023-04-09T21:10:08.694Z,79.28
2023-04-09T21:12:35.253Z,79.42
2023-04-09T21:15:02.609Z,79.19
2023-04-09T21:17:29.386Z,79.50
2023-04-09T21:19:56.611Z,80.08
2023-04-09T21:22:23.922Z,79.52
2023-04-09T21:24:54.053Z,79.92
2023-04-09T21:27:20.758Z,80.31
2023-04-09T21:29:47.171Z,79.97
2023-04-09T21:32:15.501Z,80.59
2023-04-09T21:34:42.214Z,80.82
2023-04-09T21:37:08.636Z,80.67
2023-04-09T21:39:35.526Z,81.27
2023-04-09T21:42:02.759Z,81.39
2023-04-09T21:44:30.140Z,81.45
2023-04-09T21:46:56.534Z,81.56
2023-04-09T21:49:23.038Z,81.55
2023-04-09T21:51:49.491Z,81.08
2023-04-09T21:54:16.266Z,80.91
2023-04-09T21:56:42.876Z,81.50
2023-04-09T21:59:09.671Z,81.36
2023-04-09T22:01:36.248Z,81.35
2023-04-09T22:04:02.997Z,81.56
2023-04-09T22:06:29.956Z,81.85
2023-04-09T22:08:58.025Z,81.68
2023-04-09T22:11:29.493Z,82.23
2023-04-09T22:13:57.308Z,82.38
2023-04-09T22:16:25.286Z,82.34
2023-04-09T22:18:52.592Z,82.37
2023-04-09T22:21:19.265Z,82.40
2023-04-09T22:23:46.154Z,82.56
2023-04-09T22:26:13.011Z,82.62
2023-04-09T22:28:39.603Z,82.74
2023-04-09T22:31:06.355Z,83.13
2023-04-09T22:33:33.485Z,83.23
2023-04-09T22:36:00.035Z,82.77
2023-04-09T22:38:28.013Z,83.36
2023-04-09T22:40:54.544Z,82.97
2023-04-09T22:43:21.177Z,82.62
2023-04-09T22:45:52.204Z,82.71
2023-04-09T22:48:19.632Z,82.89
2023-04-09T22:50:47.166Z,82.82
2023-04-09T22:53:21.196Z,82.70
2023-04-09T22:55:51.010Z,82.91
2023-04-09T22:58:18.258Z,82.87
2023-04-09T23:00:45.495Z,82.32
2023-04-09T23:03:12.294Z,82.42
2023-04-09T23:05:39.346Z,82.62
2023-04-09T23:08:06.334Z,82.01
2023-04-09T23:10:34.496Z,81.59
2023-04-09T23:13:01.097Z,81.70
2023-04-09T23:15:28.205Z,81.43
2023-04-09T23:17:54.685Z,81.41
2023-04-09T23:20:46.780Z,81.64
2023-04-09T23:23:13.531Z,81.65
2023-04-09T23:25:40.059Z,81.82
2023-04-09T23:28:06.485Z,82.38
2023-04-09T23:30:33.397Z,82.36
2023-04-09T23:32:59.867Z,82.38
2023-04-09T23:35:26.513Z,82.96
2023-04-09T23:37:53.042Z,83.08
2023-04-09T23:40:19.797Z,83.38
2023-04-09T23:42:48.084Z,84.10
2023-04-09T23:45:15.514Z,84.10
2023-04-09T23:47:42.309Z,84.52
2023-04-09T23:50:09.232Z,85.22
2023-04-09T23:52:38.686Z,85.33
2023-04-09T23:55:08.706Z,85.17
2023-04-09T23:57:35.388Z,85.08
